Eendracht — PDVN — position and weather

sailwx.info

Track history (hours):
 
Tides and Currents Weather Stations Pressure Air Temp Water Temp Dewpoint Dewpoint Depression Visibility Wind Speed Wind Dir Waves Ship Positions

Eendracht (Netherlands)

Last reported at 2017-Nov-20 00:30 UTC. Time now 2017-Nov-20 15:38 UTC.
Position N 50°40' E 000°39'.

Length 59 m; beam 12 m; draft 5 m.

Type: Sailing vessel. MMSI: 244543000.

Date/timePositionNaut miles runAvg speedWind from/ knotsBaromVisibWave heightAir tempDewpointWater temp
2017-Nov-20 00:30N 50°40' E 000°39'3 5.1
2017-Nov-20 00:00N 50°41' E 000°43'2 4.9
2017-Nov-19 23:30N 50°42' E 000°46'2 4.7
2017-Nov-19 23:00N 50°43' E 000°50'2 4.5
2017-Nov-19 22:30N 50°44' E 000°53'2 4.5
2017-Nov-19 22:00N 50°45' E 000°56'2 4.6
2017-Nov-19 21:30N 50°46' E 000°59'3 5.0
2017-Nov-19 20:59N 50°47' E 001°03'3 5.7
2017-Nov-19 20:30N 50°48' E 001°07'3 6.3
2017-Nov-19 20:00N 50°50' E 001°11'2 4.4
2017-Nov-19 19:30N 50°51' E 001°14'3 5.4
2017-Nov-19 19:00N 50°53' E 001°17'4 7.6
2017-Nov-19 18:30N 50°56' E 001°20'4 8.6
2017-Nov-19 18:00N 51°00' E 001°24'4 8.6
2017-Nov-19 17:30N 51°04' E 001°27'3 5.5
2017-Nov-19 17:01N 51°06' E 001°30'3 5.1
2017-Nov-19 16:30N 51°08' E 001°33'2 4.3
2017-Nov-19 16:00N 51°10' E 001°34'2 4.2
2017-Nov-19 15:30N 51°11' E 001°37'2 4.1
2017-Nov-19 15:00N 51°13' E 001°39'2 3.1
2017-Nov-19 14:30N 51°14' E 001°41'1 2.3
2017-Nov-19 14:00N 51°14' E 001°42'1 2.0
2017-Nov-19 13:31N 51°14' E 001°44'1 1.4
2017-Nov-19 13:00N 51°15' E 001°44'1 2.2
2017-Nov-19 12:30N 51°16' E 001°46'2 3.2
2017-Nov-19 12:00N 51°17' E 001°48'1 2.9
2017-Nov-19 11:30N 51°17' E 001°50'2 3.6
2017-Nov-19 11:00N 51°19' E 001°52'2 3.5
2017-Nov-19 10:30N 51°20' E 001°54'4 7.0
2017-Nov-19 10:00N 51°23' E 001°57'3 6.0
2017-Nov-19 09:30N 51°25' E 002°01'2 4.0
2017-Nov-19 09:00N 51°24' E 002°04'2 3.7
2017-Nov-19 08:30N 51°23' E 002°06'2 3.9
2017-Nov-19 08:00N 51°23' E 002°10'2 3.7
2017-Nov-19 07:30N 51°22' E 002°12'2 3.7
2017-Nov-19 07:00N 51°21' E 002°15'2 4.0
2017-Nov-19 06:30N 51°21' E 002°18'3 5.4
2017-Nov-19 05:58N 51°22' E 002°23'4 4.8
2017-Nov-19 05:13N 51°23' E 002°28'1 4.2
2017-Nov-19 04:59N 51°23' E 002°30'3 4.6
2017-Nov-19 04:25N 51°23' E 002°34'2 4.4
2017-Nov-19 03:57N 51°23' E 002°37'3 5.3
2017-Nov-19 03:26N 51°24' E 002°41'3 5.8
2017-Nov-19 02:57N 51°26' E 002°45'3 5.8
2017-Nov-19 02:29N 51°27' E 002°49'2 4.0
2017-Nov-19 02:00N 51°28' E 002°52'2 3.5
2017-Nov-19 01:30N 51°28' E 002°54'2 3.9
2017-Nov-19 01:01N 51°29' E 002°57'2 3.4
2017-Nov-19 00:30N 51°31' E 002°59'2 3.5
2017-Nov-19 00:00N 51°32' E 003°01'2 4.1
2017-Nov-18 23:30N 51°33' E 003°03'3 5.3
2017-Nov-18 23:00N 51°35' E 003°06'3 6.5
2017-Nov-18 22:30N 51°37' E 003°10'3 6.2
2017-Nov-18 22:00N 51°39' E 003°14'3 6.9
2017-Nov-18 21:29N 51°41' E 003°19'3 6.0
2017-Nov-18 21:00N 51°43' E 003°23'5 6.7
2017-Nov-18 20:16N 51°46' E 003°28'2 6.4
2017-Nov-18 20:00N 51°47' E 003°31'4 6.9
2017-Nov-18 19:26N 51°49' E 003°36'3 6.3
2017-Nov-18 19:00N 51°51' E 003°39'3 6.0
2017-Nov-18 18:30N 51°53' E 003°43'3 5.4
2017-Nov-18 18:00N 51°55' E 003°46'2 4.6
2017-Nov-18 17:30N 51°56' E 003°49'3 5.9
2017-Nov-18 17:00N 51°58' E 003°53'2 4.5
2017-Nov-18 16:30N 51°59' E 003°56'1 2.8
2017-Nov-18 16:00N 52°00' E 003°58'1 2.3
2017-Nov-18 15:30N 52°00' E 003°59'1 2.7
2017-Nov-18 15:00N 51°60' E 004°01'2 3.5
2017-Nov-18 14:30N 51°59' E 004°04'2 4.3
2017-Nov-18 14:00N 51°59' E 004°07'2 3.4
2017-Nov-18 13:30N 51°57' E 004°10'2 3.7
2017-Nov-18 13:00N 51°56' E 004°12'2 3.7
2017-Nov-18 12:30N 51°55' E 004°14'2 4.6
2017-Nov-18 12:00N 51°54' E 004°17'2 4.6
2017-Nov-18 11:30N 51°54' E 004°21'2 4.9
2017-Nov-18 11:00N 51°54' E 004°25'2 2.4
2017-Nov-18 09:59N 51°54' E 004°29'0 0.0
2017-Nov-18 09:29N 51°54' E 004°29'0 0.0
2017-Nov-18 08:58N 51°54' E 004°29'0 0.0
2017-Nov-18 08:25N 51°54' E 004°29'0 0.0
2017-Nov-18 07:59N 51°54' E 004°29'0 0.0
2017-Nov-18 07:29N 51°54' E 004°29'0 0.0
2017-Nov-18 06:55N 51°54' E 004°29'0 0.0
2017-Nov-18 06:28N 51°54' E 004°29'0 0.0
2017-Nov-18 05:58N 51°54' E 004°29'0 0.0
2017-Nov-18 05:28N 51°54' E 004°29'0 0.0
2017-Nov-18 04:59N 51°54' E 004°29'0 0.0
2017-Nov-18 04:28N 51°54' E 004°29'0 0.0
2017-Nov-18 03:59N 51°54' E 004°29'0 0.0
2017-Nov-18 03:28N 51°54' E 004°29'0 0.0
2017-Nov-18 02:59N 51°54' E 004°29'0 0.0
2017-Nov-18 02:28N 51°54' E 004°29'0 0.0
2017-Nov-18 01:58N 51°54' E 004°29'0 0.0
2017-Nov-18 01:28N 51°54' E 004°29'0 0.0
2017-Nov-18 00:58N 51°54' E 004°29'0 0.0
2017-Nov-18 00:28N 51°54' E 004°29'0 0.0
2017-Nov-17 23:58N 51°54' E 004°29'0 0.0
2017-Nov-17 23:28N 51°54' E 004°29'0 0.0
2017-Nov-17 22:52N 51°54' E 004°29'0 0.0
2017-Nov-17 22:28N 51°54' E 004°29'0 0.0
2017-Nov-17 21:59N 51°54' E 004°29'0 0.0
2017-Nov-17 21:28N 51°54' E 004°29'0 0.0
2017-Nov-17 20:58N 51°54' E 004°29'0 0.0
2017-Nov-17 20:29N 51°54' E 004°29'0 0.0
2017-Nov-17 19:58N 51°54' E 004°29'0 0.0
2017-Nov-17 19:29N 51°54' E 004°29'0 0.0
2017-Nov-17 18:58N 51°54' E 004°29'0 0.0
2017-Nov-17 18:29N 51°54' E 004°29'0 0.0
2017-Nov-17 17:59N 51°54' E 004°29'0 0.0
2017-Nov-17 17:29N 51°54' E 004°29'0 0.0
2017-Nov-17 16:59N 51°54' E 004°29'0 0.0
2017-Nov-17 16:29N 51°54' E 004°29'0 0.0
2017-Nov-17 15:59N 51°54' E 004°29'0 0.0
2017-Nov-17 15:29N 51°54' E 004°29'0 0.0
2017-Nov-17 14:59N 51°54' E 004°29'0 0.0
2017-Nov-17 14:29N 51°54' E 004°29'0 0.0
2017-Nov-17 13:59N 51°54' E 004°29'0 0.0
2017-Nov-17 13:29N 51°54' E 004°29'0 0.0
2017-Nov-17 12:59N 51°54' E 004°29'0 0.0
2017-Nov-17 12:29N 51°54' E 004°29'0 0.0
2017-Nov-17 11:59N 51°54' E 004°29'0 0.0
2017-Nov-17 11:29N 51°54' E 004°29'0 0.0
2017-Nov-17 10:59N 51°54' E 004°29'0 0.0
2017-Nov-17 10:30N 51°54' E 004°29'0 0.0
2017-Nov-17 09:57N 51°54' E 004°29'0 0.0
2017-Nov-17 09:27N 51°54' E 004°29'0 0.0
2017-Nov-17 08:55N 51°54' E 004°29'0 0.0
2017-Nov-17 08:28N 51°54' E 004°29'0 0.0
2017-Nov-17 07:58N 51°54' E 004°29'0 0.4
2017-Nov-17 07:30N 51°54' E 004°29'1 1.7
2017-Nov-17 06:59N 51°54' E 004°27'0 0.0
2017-Nov-17 06:28N 51°54' E 004°27'0 0.0
2017-Nov-17 05:59N 51°54' E 004°27'0 0.0
2017-Nov-17 05:29N 51°54' E 004°27'0 0.0
2017-Nov-17 04:59N 51°54' E 004°27'0 0.0
2017-Nov-17 04:29N 51°54' E 004°27'0 0.0
2017-Nov-17 03:58N 51°54' E 004°27'0 0.0
2017-Nov-17 03:29N 51°54' E 004°27'0 0.0
2017-Nov-17 02:59N 51°54' E 004°27'0 0.0
2017-Nov-17 02:29N 51°54' E 004°27'0 0.0
2017-Nov-17 01:59N 51°54' E 004°27'0 0.0
2017-Nov-17 01:29N 51°54' E 004°27'0 0.0
2017-Nov-17 00:58N 51°54' E 004°27'0 0.0
2017-Nov-17 00:29N 51°54' E 004°27'0 0.0
2017-Nov-16 23:59N 51°54' E 004°27'0 0.0
2017-Nov-16 23:29N 51°54' E 004°27'0 0.0
2017-Nov-16 22:59N 51°54' E 004°27'0 0.0
2017-Nov-16 22:28N 51°54' E 004°27'0 0.0
2017-Nov-16 21:59N 51°54' E 004°27'0 0.0
2017-Nov-16 21:29N 51°54' E 004°27'0 0.0
2017-Nov-16 20:58N 51°54' E 004°27'0 0.0
2017-Nov-16 20:28N 51°54' E 004°27'0 0.0
2017-Nov-16 19:58N 51°54' E 004°27'0 0.0
2017-Nov-16 19:30N 51°54' E 004°27'0 0.0
2017-Nov-16 18:57N 51°54' E 004°27'0 0.0
2017-Nov-16 18:28N 51°54' E 004°27'0 0.0
2017-Nov-16 17:58N 51°54' E 004°27'0 0.0
2017-Nov-16 17:30N 51°54' E 004°27'0 0.0
2017-Nov-16 17:00N 51°54' E 004°27'0 0.0
2017-Nov-16 16:30N 51°54' E 004°27'0 0.0
2017-Nov-16 15:58N 51°54' E 004°27'0 0.0
2017-Nov-16 15:28N 51°54' E 004°27'0 0.0
2017-Nov-16 15:00N 51°54' E 004°27'0 0.0
2017-Nov-16 14:30N 51°54' E 004°27'0 0.0
2017-Nov-16 13:58N 51°54' E 004°27'0 0.0
2017-Nov-16 13:27N 51°54' E 004°27'0 0.0
2017-Nov-16 12:58N 51°54' E 004°27'0 0.0
2017-Nov-16 12:28N 51°54' E 004°27'0 0.0
2017-Nov-16 11:58N 51°54' E 004°27'0 0.0
2017-Nov-16 11:27N 51°54' E 004°27'0 0.0
2017-Nov-16 10:58N 51°54' E 004°27'0 0.0
2017-Nov-16 10:27N 51°54' E 004°27'0 0.0
2017-Nov-16 09:58N 51°54' E 004°27'0 0.0
2017-Nov-16 09:30N 51°54' E 004°27'0 0.0
2017-Nov-16 08:58N 51°54' E 004°27'0 0.0
2017-Nov-16 08:28N 51°54' E 004°27'0 0.0
2017-Nov-16 08:00N 51°54' E 004°27'0 0.0
2017-Nov-16 07:28N 51°54' E 004°27'0 0.0
2017-Nov-16 07:00N 51°54' E 004°27'0 0.0
2017-Nov-16 06:27N 51°54' E 004°27'0 0.0
2017-Nov-16 05:57N 51°54' E 004°27'0 0.0
2017-Nov-16 05:28N 51°54' E 004°27'0 0.0
2017-Nov-16 04:59N 51°54' E 004°27'0 0.0
2017-Nov-16 04:30N 51°54' E 004°27'0 0.0
2017-Nov-16 04:00N 51°54' E 004°27'0 0.0
2017-Nov-16 03:29N 51°54' E 004°27'0 0.0
2017-Nov-16 03:00N 51°54' E 004°27'0 0.0
2017-Nov-16 02:30N 51°54' E 004°27'0 0.0
2017-Nov-16 01:59N 51°54' E 004°27'0 0.0
2017-Nov-16 01:30N 51°54' E 004°27'0 0.0
2017-Nov-16 01:00N 51°54' E 004°27'0 0.0
2017-Nov-16 00:30N 51°54' E 004°27'0 0.0
2017-Nov-16 00:00N 51°54' E 004°27'0 0.0
2017-Nov-15 23:30N 51°54' E 004°27'0 0.0
2017-Nov-15 22:59N 51°54' E 004°27'0 0.0
2017-Nov-15 22:29N 51°54' E 004°27'0 0.0
2017-Nov-15 22:00N 51°54' E 004°27'0 0.0
2017-Nov-15 21:30N 51°54' E 004°27'0 0.0
2017-Nov-15 20:59N 51°54' E 004°27'0 0.0
2017-Nov-15 20:30N 51°54' E 004°27'0 0.0
2017-Nov-15 20:00N 51°54' E 004°27'0 0.0
2017-Nov-15 19:30N 51°54' E 004°27'0 0.0
2017-Nov-15 19:00N 51°54' E 004°27'0 0.0
2017-Nov-15 18:30N 51°54' E 004°27'0 0.0
2017-Nov-15 17:59N 51°54' E 004°27'0 0.0
2017-Nov-15 17:30N 51°54' E 004°27'0 0.0
2017-Nov-15 17:00N 51°54' E 004°27'0 0.0
2017-Nov-15 16:29N 51°54' E 004°27'0 0.0
2017-Nov-15 15:57N 51°54' E 004°27'0 0.0
2017-Nov-15 15:30N 51°54' E 004°27'0 0.0
2017-Nov-15 15:00N 51°54' E 004°27'0 0.0
2017-Nov-15 14:30N 51°54' E 004°27'0 0.0
2017-Nov-15 13:59N 51°54' E 004°27'0 0.0
2017-Nov-15 13:29N 51°54' E 004°27'0 0.0
2017-Nov-15 12:59N 51°54' E 004°27'0 0.0
2017-Nov-15 12:29N 51°54' E 004°27'0 0.0
2017-Nov-15 11:59N 51°54' E 004°27'0 0.0
2017-Nov-15 11:29N 51°54' E 004°27'0 0.0
2017-Nov-15 10:58N 51°54' E 004°27'0 0.0
2017-Nov-15 10:29N 51°54' E 004°27'0 0.0
2017-Nov-15 09:59N 51°54' E 004°27'0 0.0
2017-Nov-15 09:28N 51°54' E 004°27'0 0.0
2017-Nov-15 08:58N 51°54' E 004°27'0 0.0
2017-Nov-15 08:29N 51°54' E 004°27'0 0.0
2017-Nov-15 07:56N 51°54' E 004°27'0 0.0
2017-Nov-15 07:29N 51°54' E 004°27'0 0.0
2017-Nov-15 06:58N 51°54' E 004°27'0 0.0
2017-Nov-15 06:29N 51°54' E 004°27'0 0.0
2017-Nov-15 05:59N 51°54' E 004°27'0 0.0
2017-Nov-15 05:29N 51°54' E 004°27'0 0.0
2017-Nov-15 04:59N 51°54' E 004°27'0 0.0
2017-Nov-15 04:28N 51°54' E 004°27'0 0.0
2017-Nov-15 03:59N 51°54' E 004°27'0 0.0
2017-Nov-15 03:29N 51°54' E 004°27'0 0.0
2017-Nov-15 02:59N 51°54' E 004°27'0 0.0
2017-Nov-15 02:26N 51°54' E 004°27'0 0.0
2017-Nov-15 01:59N 51°54' E 004°27'0 0.0
2017-Nov-15 01:29N 51°54' E 004°27'0 0.0
2017-Nov-15 00:58N 51°54' E 004°27'0 0.0
2017-Nov-15 00:29N 51°54' E 004°27'0 0.0
2017-Nov-14 23:59N 51°54' E 004°27'0 0.0
2017-Nov-14 23:29N 51°54' E 004°27'0 0.0
2017-Nov-14 22:59N 51°54' E 004°27'0 0.0
2017-Nov-14 22:29N 51°54' E 004°27'0 0.0
2017-Nov-14 21:55N 51°54' E 004°27'0 0.0
2017-Nov-14 21:29N 51°54' E 004°27'0 0.0
2017-Nov-14 20:59N 51°54' E 004°27'0 0.0
2017-Nov-14 20:29N 51°54' E 004°27'0 0.0
2017-Nov-14 19:58N 51°54' E 004°27'0 0.0
2017-Nov-14 19:28N 51°54' E 004°27'0 0.0
2017-Nov-14 19:00N 51°54' E 004°27'0 0.0
2017-Nov-14 18:28N 51°54' E 004°27'0 0.0
2017-Nov-14 17:57N 51°54' E 004°27'0 0.0
2017-Nov-14 17:28N 51°54' E 004°27'0 0.0
2017-Nov-14 16:58N 51°54' E 004°27'0 0.0
2017-Nov-14 16:28N 51°54' E 004°27'0 0.0
2017-Nov-14 15:58N 51°54' E 004°27'0 0.0
2017-Nov-14 15:28N 51°54' E 004°27'0 0.0
2017-Nov-14 14:58N 51°54' E 004°27'0 0.0
2017-Nov-14 14:25N 51°54' E 004°27'0 0.0
2017-Nov-14 13:58N 51°54' E 004°27'0 0.0
2017-Nov-14 13:28N 51°54' E 004°27'0 0.0
2017-Nov-14 12:58N 51°54' E 004°27'0 0.0
2017-Nov-14 12:25N 51°54' E 004°27'0 0.0
2017-Nov-14 11:58N 51°54' E 004°27'0 0.0
2017-Nov-14 11:30N 51°54' E 004°27'0 0.0
2017-Nov-14 10:58N 51°54' E 004°27'0 0.0
2017-Nov-14 10:30N 51°54' E 004°27'0 0.0
2017-Nov-14 09:57N 51°54' E 004°27'0 0.0
2017-Nov-14 09:30N 51°54' E 004°27'0 0.0
2017-Nov-14 08:57N 51°54' E 004°27'0 0.0
2017-Nov-14 08:27N 51°54' E 004°27'0 0.0
2017-Nov-14 07:58N 51°54' E 004°27'0 0.0
2017-Nov-14 07:27N 51°54' E 004°27'0 0.0
2017-Nov-14 06:57N 51°54' E 004°27'0 0.0
2017-Nov-14 06:28N 51°54' E 004°27'0 0.0
2017-Nov-14 05:57N 51°54' E 004°27'0 0.0
2017-Nov-14 05:27N 51°54' E 004°27'0 0.0
2017-Nov-14 05:00N 51°54' E 004°27'0 0.0
2017-Nov-14 04:27N 51°54' E 004°27'0 0.0
2017-Nov-14 03:58N 51°54' E 004°27'0 0.0
2017-Nov-14 03:25N 51°54' E 004°27'0 0.0
2017-Nov-14 03:00N 51°54' E 004°27'0 0.0
2017-Nov-14 02:30N 51°54' E 004°27'0 0.0
2017-Nov-14 01:57N 51°54' E 004°27'0 0.0
2017-Nov-14 01:27N 51°54' E 004°27'0 0.0
2017-Nov-14 01:00N 51°54' E 004°27'0 0.0
2017-Nov-14 00:30N 51°54' E 004°27'0 0.0
2017-Nov-13 23:59N 51°54' E 004°27'0 0.0
2017-Nov-13 23:30N 51°54' E 004°27'0 0.0
2017-Nov-13 23:00N 51°54' E 004°27'0 0.0
2017-Nov-13 22:30N 51°54' E 004°27'0 0.0
2017-Nov-13 21:59N 51°54' E 004°27'0 0.0
2017-Nov-13 01:59N 51°54' E 004°27'0 0.0
2017-Nov-13 01:29N 51°54' E 004°27'0 0.0
2017-Nov-13 00:59N 51°54' E 004°27'0 0.0
2017-Nov-13 00:29N 51°54' E 004°27'0 0.0
2017-Nov-12 23:59N 51°54' E 004°27'0 0.0
2017-Nov-12 23:29N 51°54' E 004°27'0 0.0
2017-Nov-12 22:58N 51°54' E 004°27'0 0.0
2017-Nov-12 22:29N 51°54' E 004°27'0 0.0
2017-Nov-12 21:58N 51°54' E 004°27'0 0.0
2017-Nov-12 21:29N 51°54' E 004°27'0 0.0
2017-Nov-12 20:58N 51°54' E 004°27'0 0.0
2017-Nov-12 20:28N 51°54' E 004°27'0 0.0
2017-Nov-12 19:59N 51°54' E 004°27'0 0.0
2017-Nov-12 19:29N 51°54' E 004°27'0 0.0
2017-Nov-12 18:55N 51°54' E 004°27'0 0.0
2017-Nov-12 18:28N 51°54' E 004°27'0 0.0
2017-Nov-12 17:58N 51°54' E 004°27'0 0.0
2017-Nov-12 17:26N 51°54' E 004°27'0 0.0
2017-Nov-12 16:59N 51°54' E 004°27'0 0.0
2017-Nov-12 16:29N 51°54' E 004°27'0 0.0
2017-Nov-12 15:58N 51°54' E 004°27'0 0.0
2017-Nov-12 15:26N 51°54' E 004°27'0 0.0
2017-Nov-12 14:58N 51°54' E 004°27'0 0.0
2017-Nov-12 14:29N 51°54' E 004°27'0 0.0
2017-Nov-12 13:59N 51°54' E 004°27'0 0.0
2017-Nov-12 13:29N 51°54' E 004°27'0 0.0
2017-Nov-12 12:59N 51°54' E 004°27'0 0.0
2017-Nov-12 12:29N 51°54' E 004°27'0 0.0
2017-Nov-12 11:59N 51°54' E 004°27'0 0.0
2017-Nov-12 11:29N 51°54' E 004°27'0 0.0
2017-Nov-12 10:58N 51°54' E 004°27'0 0.0
2017-Nov-12 10:28N 51°54' E 004°27'0 0.0
2017-Nov-12 09:59N 51°54' E 004°27'0 0.0
2017-Nov-12 09:28N 51°54' E 004°27'0 0.0
2017-Nov-12 09:01N 51°54' E 004°27'0 0.0
2017-Nov-12 08:28N 51°54' E 004°27'0 0.0
2017-Nov-12 08:00N 51°54' E 004°27'0 0.0
2017-Nov-12 07:28N 51°54' E 004°27'0 0.0
2017-Nov-12 07:00N 51°54' E 004°27'0 0.0
2017-Nov-12 06:28N 51°54' E 004°27'0 0.0
2017-Nov-12 05:57N 51°54' E 004°27'0 0.0
2017-Nov-12 05:25N 51°54' E 004°27'0 0.0
2017-Nov-12 04:57N 51°54' E 004°27'0 0.0
2017-Nov-12 04:30N 51°54' E 004°27'0 0.0
2017-Nov-12 03:58N 51°54' E 004°27'0 0.0
2017-Nov-12 03:30N 51°54' E 004°27'0 0.0
2017-Nov-12 03:00N 51°54' E 004°27'0 0.0
2017-Nov-12 02:30N 51°54' E 004°27'0 0.0
2017-Nov-12 01:57N 51°54' E 004°27'0 0.0
2017-Nov-12 01:28N 51°54' E 004°27'0 0.0
2017-Nov-12 01:00N 51°54' E 004°27'0 0.0
2017-Nov-12 00:27N 51°54' E 004°27'0 0.0
2017-Nov-11 23:58N 51°54' E 004°27'0 0.0
2017-Nov-11 23:30N 51°54' E 004°27'0 0.0
2017-Nov-11 22:58N 51°54' E 004°27'0 0.0
2017-Nov-11 22:30N 51°54' E 004°27'0 0.0
2017-Nov-11 22:00N 51°54' E 004°27'0 0.0
2017-Nov-11 21:30N 51°54' E 004°27'0 0.0
2017-Nov-11 20:57N 51°54' E 004°27'0 0.0
2017-Nov-11 20:28N 51°54' E 004°27'0 0.0
2017-Nov-11 19:58N 51°54' E 004°27'0 0.0
2017-Nov-11 19:28N 51°54' E 004°27'0 0.0
2017-Nov-11 18:58N 51°54' E 004°27'0 0.0
2017-Nov-11 18:28N 51°54' E 004°27'0 0.0
2017-Nov-11 17:57N 51°54' E 004°27'0 0.0
2017-Nov-11 17:30N 51°54' E 004°27'0 0.0
2017-Nov-11 16:57N 51°54' E 004°27'0 0.0
2017-Nov-11 16:30N 51°54' E 004°27'0 0.0
2017-Nov-11 15:58N 51°54' E 004°27'0 0.0
2017-Nov-11 15:28N 51°54' E 004°27'0 0.1
2017-Nov-11 14:58N 51°54' E 004°27'1 3.1
2017-Nov-11 14:31N 51°54' E 004°25'1 2.6
2017-Nov-11 14:00N 51°54' E 004°23'0 0.0
2017-Nov-11 13:29N 51°54' E 004°23'0 0.0
2017-Nov-11 13:00N 51°54' E 004°23'0 0.0
2017-Nov-11 12:30N 51°54' E 004°23'0 0.0
2017-Nov-11 12:00N 51°54' E 004°23'0 0.0
2017-Nov-11 11:30N 51°54' E 004°23'0 0.0
2017-Nov-11 10:59N 51°54' E 004°23'0 0.0
2017-Nov-11 10:30N 51°54' E 004°23'0 0.0
2017-Nov-11 10:00N 51°54' E 004°23'0 0.0
2017-Nov-11 09:29N 51°54' E 004°23'0 0.0
2017-Nov-11 09:00N 51°54' E 004°23'0 0.0
2017-Nov-11 08:29N 51°54' E 004°23'0 0.0
2017-Nov-11 08:00N 51°54' E 004°23'0 0.0
2017-Nov-11 07:29N 51°54' E 004°23'0 0.0
2017-Nov-11 07:00N 51°54' E 004°23'0 0.0
2017-Nov-11 06:30N 51°54' E 004°23'0 0.0
2017-Nov-11 05:59N 51°54' E 004°23'0 0.0
2017-Nov-11 05:30N 51°54' E 004°23'0 0.0
2017-Nov-11 04:59N 51°54' E 004°23'0 0.0
2017-Nov-11 04:29N 51°54' E 004°23'0 0.0
2017-Nov-11 03:59N 51°54' E 004°23'0 0.0
2017-Nov-11 03:29N 51°54' E 004°23'0 0.0
2017-Nov-11 02:56N 51°54' E 004°23'0 0.0
2017-Nov-11 02:29N 51°54' E 004°23'0 0.0
2017-Nov-11 01:58N 51°54' E 004°23'0 0.0
2017-Nov-11 01:28N 51°54' E 004°23'0 0.0
2017-Nov-11 00:58N 51°54' E 004°23'0 0.0
2017-Nov-11 00:28N 51°54' E 004°23'0 0.0
2017-Nov-10 23:58N 51°54' E 004°23'0 0.0
2017-Nov-10 23:28N 51°54' E 004°23'0 0.0
2017-Nov-10 22:55N 51°54' E 004°23'0 0.0
2017-Nov-10 22:29N 51°54' E 004°23'0 0.0
2017-Nov-10 21:59N 51°54' E 004°23'0 0.0
2017-Nov-10 21:28N 51°54' E 004°23'0 0.0
2017-Nov-10 20:59N 51°54' E 004°23'0 0.0
2017-Nov-10 20:29N 51°54' E 004°23'0 0.0
2017-Nov-10 19:59N 51°54' E 004°23'0 0.0
2017-Nov-10 18:58N 51°54' E 004°23'0 0.0
2017-Nov-10 18:29N 51°54' E 004°23'0 0.0
2017-Nov-10 17:58N 51°54' E 004°23'0 0.0
2017-Nov-10 17:29N 51°54' E 004°23'0 0.0
2017-Nov-10 16:58N 51°54' E 004°23'0 0.0
2017-Nov-10 16:28N 51°54' E 004°23'0 0.0
2017-Nov-10 15:59N 51°54' E 004°23'0 0.0
2017-Nov-10 15:29N 51°54' E 004°23'0 0.0
2017-Nov-10 14:58N 51°54' E 004°23'0 0.0
2017-Nov-10 14:25N 51°54' E 004°23'0 0.0
2017-Nov-10 13:59N 51°54' E 004°23'0 0.0
2017-Nov-10 13:28N 51°54' E 004°23'0 0.0
2017-Nov-10 12:58N 51°54' E 004°23'0 0.0
2017-Nov-10 12:29N 51°54' E 004°23'0 0.0
2017-Nov-10 11:59N 51°54' E 004°23'0 0.0
2017-Nov-10 11:28N 51°54' E 004°23'0 0.0
2017-Nov-10 10:58N 51°54' E 004°23'0 0.0
2017-Nov-10 10:29N 51°54' E 004°23'0 0.0
2017-Nov-10 09:59N 51°54' E 004°23'0 0.0
2017-Nov-10 09:29N 51°54' E 004°23'0 0.0
2017-Nov-10 08:59N 51°54' E 004°23'0 0.0
2017-Nov-10 08:26N 51°54' E 004°23'0 0.0
2017-Nov-10 07:56N 51°54' E 004°23'0 0.0
2017-Nov-10 07:28N 51°54' E 004°23'0 0.0
2017-Nov-10 06:59N 51°54' E 004°23'0 0.0
2017-Nov-10 06:28N 51°54' E 004°23'0 0.0
2017-Nov-10 06:01N 51°54' E 004°23'0 0.0
2017-Nov-10 05:31N 51°54' E 004°23'0 0.0
2017-Nov-10 05:01N 51°54' E 004°23'0 0.0
2017-Nov-10 04:30N 51°54' E 004°23'0 0.0
2017-Nov-10 04:00N 51°54' E 004°23'0 0.0
2017-Nov-10 03:30N 51°54' E 004°23'0 0.0
2017-Nov-10 03:00N 51°54' E 004°23'0 0.0
2017-Nov-10 02:30N 51°54' E 004°23'0 0.0
2017-Nov-10 02:00N 51°54' E 004°23'0 0.0
2017-Nov-10 01:30N 51°54' E 004°23'0 0.0
2017-Nov-10 01:00N 51°54' E 004°23'  
Track history (hours):
 
Tides and Currents Weather Stations Pressure Air Temp Water Temp Dewpoint Dewpoint Depression Visibility Wind Speed Wind Dir Waves Ship Positions

Eendracht (Netherlands)

Last reported at 2017-Nov-20 00:30 UTC. Time now 2017-Nov-20 15:38 UTC.
Position N 50°40' E 000°39'.

Length 59 m; beam 12 m; draft 5 m.

Type: Sailing vessel. MMSI: 244543000.

Date/timePositionNaut miles runAvg speedWind from/ knotsBaromVisibWave heightAir tempDewpointWater temp
2017-Nov-20 00:30N 50°40' E 000°39'3 5.1
2017-Nov-20 00:00N 50°41' E 000°43'2 4.9
2017-Nov-19 23:30N 50°42' E 000°46'2 4.7
2017-Nov-19 23:00N 50°43' E 000°50'2 4.5
2017-Nov-19 22:30N 50°44' E 000°53'2 4.5
2017-Nov-19 22:00N 50°45' E 000°56'2 4.6
2017-Nov-19 21:30N 50°46' E 000°59'3 5.0
2017-Nov-19 20:59N 50°47' E 001°03'3 5.7
2017-Nov-19 20:30N 50°48' E 001°07'3 6.3
2017-Nov-19 20:00N 50°50' E 001°11'2 4.4
2017-Nov-19 19:30N 50°51' E 001°14'3 5.4
2017-Nov-19 19:00N 50°53' E 001°17'4 7.6
2017-Nov-19 18:30N 50°56' E 001°20'4 8.6
2017-Nov-19 18:00N 51°00' E 001°24'4 8.6
2017-Nov-19 17:30N 51°04' E 001°27'3 5.5
2017-Nov-19 17:01N 51°06' E 001°30'3 5.1
2017-Nov-19 16:30N 51°08' E 001°33'2 4.3
2017-Nov-19 16:00N 51°10' E 001°34'2 4.2
2017-Nov-19 15:30N 51°11' E 001°37'2 4.1
2017-Nov-19 15:00N 51°13' E 001°39'2 3.1
2017-Nov-19 14:30N 51°14' E 001°41'1 2.3
2017-Nov-19 14:00N 51°14' E 001°42'1 2.0
2017-Nov-19 13:31N 51°14' E 001°44'1 1.4
2017-Nov-19 13:00N 51°15' E 001°44'1 2.2
2017-Nov-19 12:30N 51°16' E 001°46'2 3.2
2017-Nov-19 12:00N 51°17' E 001°48'1 2.9
2017-Nov-19 11:30N 51°17' E 001°50'2 3.6
2017-Nov-19 11:00N 51°19' E 001°52'2 3.5
2017-Nov-19 10:30N 51°20' E 001°54'4 7.0
2017-Nov-19 10:00N 51°23' E 001°57'3 6.0
2017-Nov-19 09:30N 51°25' E 002°01'2 4.0
2017-Nov-19 09:00N 51°24' E 002°04'2 3.7
2017-Nov-19 08:30N 51°23' E 002°06'2 3.9
2017-Nov-19 08:00N 51°23' E 002°10'2 3.7
2017-Nov-19 07:30N 51°22' E 002°12'2 3.7
2017-Nov-19 07:00N 51°21' E 002°15'2 4.0
2017-Nov-19 06:30N 51°21' E 002°18'3 5.4
2017-Nov-19 05:58N 51°22' E 002°23'4 4.8
2017-Nov-19 05:13N 51°23' E 002°28'1 4.2
2017-Nov-19 04:59N 51°23' E 002°30'3 4.6
2017-Nov-19 04:25N 51°23' E 002°34'2 4.4
2017-Nov-19 03:57N 51°23' E 002°37'3 5.3
2017-Nov-19 03:26N 51°24' E 002°41'3 5.8
2017-Nov-19 02:57N 51°26' E 002°45'3 5.8
2017-Nov-19 02:29N 51°27' E 002°49'2 4.0
2017-Nov-19 02:00N 51°28' E 002°52'2 3.5
2017-Nov-19 01:30N 51°28' E 002°54'2 3.9
2017-Nov-19 01:01N 51°29' E 002°57'2 3.4
2017-Nov-19 00:30N 51°31' E 002°59'2 3.5
2017-Nov-19 00:00N 51°32' E 003°01'2 4.1
2017-Nov-18 23:30N 51°33' E 003°03'3 5.3
2017-Nov-18 23:00N 51°35' E 003°06'3 6.5
2017-Nov-18 22:30N 51°37' E 003°10'3 6.2
2017-Nov-18 22:00N 51°39' E 003°14'3 6.9
2017-Nov-18 21:29N 51°41' E 003°19'3 6.0
2017-Nov-18 21:00N 51°43' E 003°23'5 6.7
2017-Nov-18 20:16N 51°46' E 003°28'2 6.4
2017-Nov-18 20:00N 51°47' E 003°31'4 6.9
2017-Nov-18 19:26N 51°49' E 003°36'3 6.3
2017-Nov-18 19:00N 51°51' E 003°39'3 6.0
2017-Nov-18 18:30N 51°53' E 003°43'3 5.4
2017-Nov-18 18:00N 51°55' E 003°46'2 4.6
2017-Nov-18 17:30N 51°56' E 003°49'3 5.9
2017-Nov-18 17:00N 51°58' E 003°53'2 4.5
2017-Nov-18 16:30N 51°59' E 003°56'1 2.8
2017-Nov-18 16:00N 52°00' E 003°58'1 2.3
2017-Nov-18 15:30N 52°00' E 003°59'1 2.7
2017-Nov-18 15:00N 51°60' E 004°01'2 3.5
2017-Nov-18 14:30N 51°59' E 004°04'2 4.3
2017-Nov-18 14:00N 51°59' E 004°07'2 3.4
2017-Nov-18 13:30N 51°57' E 004°10'2 3.7
2017-Nov-18 13:00N 51°56' E 004°12'2 3.7
2017-Nov-18 12:30N 51°55' E 004°14'2 4.6
2017-Nov-18 12:00N 51°54' E 004°17'2 4.6
2017-Nov-18 11:30N 51°54' E 004°21'2 4.9
2017-Nov-18 11:00N 51°54' E 004°25'2 2.4
2017-Nov-18 09:59N 51°54' E 004°29'0 0.0
2017-Nov-18 09:29N 51°54' E 004°29'0 0.0
2017-Nov-18 08:58N 51°54' E 004°29'0 0.0
2017-Nov-18 08:25N 51°54' E 004°29'0 0.0
2017-Nov-18 07:59N 51°54' E 004°29'0 0.0
2017-Nov-18 07:29N 51°54' E 004°29'0 0.0
2017-Nov-18 06:55N 51°54' E 004°29'0 0.0
2017-Nov-18 06:28N 51°54' E 004°29'0 0.0
2017-Nov-18 05:58N 51°54' E 004°29'0 0.0
2017-Nov-18 05:28N 51°54' E 004°29'0 0.0
2017-Nov-18 04:59N 51°54' E 004°29'0 0.0
2017-Nov-18 04:28N 51°54' E 004°29'0 0.0
2017-Nov-18 03:59N 51°54' E 004°29'0 0.0
2017-Nov-18 03:28N 51°54' E 004°29'0 0.0
2017-Nov-18 02:59N 51°54' E 004°29'0 0.0
2017-Nov-18 02:28N 51°54' E 004°29'0 0.0
2017-Nov-18 01:58N 51°54' E 004°29'0 0.0
2017-Nov-18 01:28N 51°54' E 004°29'0 0.0
2017-Nov-18 00:58N 51°54' E 004°29'0 0.0
2017-Nov-18 00:28N 51°54' E 004°29'0 0.0
2017-Nov-17 23:58N 51°54' E 004°29'0 0.0
2017-Nov-17 23:28N 51°54' E 004°29'0 0.0
2017-Nov-17 22:52N 51°54' E 004°29'0 0.0
2017-Nov-17 22:28N 51°54' E 004°29'0 0.0
2017-Nov-17 21:59N 51°54' E 004°29'0 0.0
2017-Nov-17 21:28N 51°54' E 004°29'0 0.0
2017-Nov-17 20:58N 51°54' E 004°29'0 0.0
2017-Nov-17 20:29N 51°54' E 004°29'0 0.0
2017-Nov-17 19:58N 51°54' E 004°29'0 0.0
2017-Nov-17 19:29N 51°54' E 004°29'0 0.0
2017-Nov-17 18:58N 51°54' E 004°29'0 0.0
2017-Nov-17 18:29N 51°54' E 004°29'0 0.0
2017-Nov-17 17:59N 51°54' E 004°29'0 0.0
2017-Nov-17 17:29N 51°54' E 004°29'0 0.0
2017-Nov-17 16:59N 51°54' E 004°29'0 0.0
2017-Nov-17 16:29N 51°54' E 004°29'0 0.0
2017-Nov-17 15:59N 51°54' E 004°29'0 0.0
2017-Nov-17 15:29N 51°54' E 004°29'0 0.0
2017-Nov-17 14:59N 51°54' E 004°29'0 0.0
2017-Nov-17 14:29N 51°54' E 004°29'0 0.0
2017-Nov-17 13:59N 51°54' E 004°29'0 0.0
2017-Nov-17 13:29N 51°54' E 004°29'0 0.0
2017-Nov-17 12:59N 51°54' E 004°29'0 0.0
2017-Nov-17 12:29N 51°54' E 004°29'0 0.0
2017-Nov-17 11:59N 51°54' E 004°29'0 0.0
2017-Nov-17 11:29N 51°54' E 004°29'0 0.0
2017-Nov-17 10:59N 51°54' E 004°29'0 0.0
2017-Nov-17 10:30N 51°54' E 004°29'0 0.0
2017-Nov-17 09:57N 51°54' E 004°29'0 0.0
2017-Nov-17 09:27N 51°54' E 004°29'0 0.0
2017-Nov-17 08:55N 51°54' E 004°29'0 0.0
2017-Nov-17 08:28N 51°54' E 004°29'0 0.0
2017-Nov-17 07:58N 51°54' E 004°29'0 0.4
2017-Nov-17 07:30N 51°54' E 004°29'1 1.7
2017-Nov-17 06:59N 51°54' E 004°27'0 0.0
2017-Nov-17 06:28N 51°54' E 004°27'0 0.0
2017-Nov-17 05:59N 51°54' E 004°27'0 0.0
2017-Nov-17 05:29N 51°54' E 004°27'0 0.0
2017-Nov-17 04:59N 51°54' E 004°27'0 0.0
2017-Nov-17 04:29N 51°54' E 004°27'0 0.0
2017-Nov-17 03:58N 51°54' E 004°27'0 0.0
2017-Nov-17 03:29N 51°54' E 004°27'0 0.0
2017-Nov-17 02:59N 51°54' E 004°27'0 0.0
2017-Nov-17 02:29N 51°54' E 004°27'0 0.0
2017-Nov-17 01:59N 51°54' E 004°27'0 0.0
2017-Nov-17 01:29N 51°54' E 004°27'0 0.0
2017-Nov-17 00:58N 51°54' E 004°27'0 0.0
2017-Nov-17 00:29N 51°54' E 004°27'0 0.0
2017-Nov-16 23:59N 51°54' E 004°27'0 0.0
2017-Nov-16 23:29N 51°54' E 004°27'0 0.0
2017-Nov-16 22:59N 51°54' E 004°27'0 0.0
2017-Nov-16 22:28N 51°54' E 004°27'0 0.0
2017-Nov-16 21:59N 51°54' E 004°27'0 0.0
2017-Nov-16 21:29N 51°54' E 004°27'0 0.0
2017-Nov-16 20:58N 51°54' E 004°27'0 0.0
2017-Nov-16 20:28N 51°54' E 004°27'0 0.0
2017-Nov-16 19:58N 51°54' E 004°27'0 0.0
2017-Nov-16 19:30N 51°54' E 004°27'0 0.0
2017-Nov-16 18:57N 51°54' E 004°27'0 0.0
2017-Nov-16 18:28N 51°54' E 004°27'0 0.0
2017-Nov-16 17:58N 51°54' E 004°27'0 0.0
2017-Nov-16 17:30N 51°54' E 004°27'0 0.0
2017-Nov-16 17:00N 51°54' E 004°27'0 0.0
2017-Nov-16 16:30N 51°54' E 004°27'0 0.0
2017-Nov-16 15:58N 51°54' E 004°27'0 0.0
2017-Nov-16 15:28N 51°54' E 004°27'0 0.0
2017-Nov-16 15:00N 51°54' E 004°27'0 0.0
2017-Nov-16 14:30N 51°54' E 004°27'0 0.0
2017-Nov-16 13:58N 51°54' E 004°27'0 0.0
2017-Nov-16 13:27N 51°54' E 004°27'0 0.0
2017-Nov-16 12:58N 51°54' E 004°27'0 0.0
2017-Nov-16 12:28N 51°54' E 004°27'0 0.0
2017-Nov-16 11:58N 51°54' E 004°27'0 0.0
2017-Nov-16 11:27N 51°54' E 004°27'0 0.0
2017-Nov-16 10:58N 51°54' E 004°27'0 0.0
2017-Nov-16 10:27N 51°54' E 004°27'0 0.0
2017-Nov-16 09:58N 51°54' E 004°27'0 0.0
2017-Nov-16 09:30N 51°54' E 004°27'0 0.0
2017-Nov-16 08:58N 51°54' E 004°27'0 0.0
2017-Nov-16 08:28N 51°54' E 004°27'0 0.0
2017-Nov-16 08:00N 51°54' E 004°27'0 0.0
2017-Nov-16 07:28N 51°54' E 004°27'0 0.0
2017-Nov-16 07:00N 51°54' E 004°27'0 0.0
2017-Nov-16 06:27N 51°54' E 004°27'0 0.0
2017-Nov-16 05:57N 51°54' E 004°27'0 0.0
2017-Nov-16 05:28N 51°54' E 004°27'0 0.0
2017-Nov-16 04:59N 51°54' E 004°27'0 0.0
2017-Nov-16 04:30N 51°54' E 004°27'0 0.0
2017-Nov-16 04:00N 51°54' E 004°27'0 0.0
2017-Nov-16 03:29N 51°54' E 004°27'0 0.0
2017-Nov-16 03:00N 51°54' E 004°27'0 0.0
2017-Nov-16 02:30N 51°54' E 004°27'0 0.0
2017-Nov-16 01:59N 51°54' E 004°27'0 0.0
2017-Nov-16 01:30N 51°54' E 004°27'0 0.0
2017-Nov-16 01:00N 51°54' E 004°27'0 0.0
2017-Nov-16 00:30N 51°54' E 004°27'0 0.0
2017-Nov-16 00:00N 51°54' E 004°27'0 0.0
2017-Nov-15 23:30N 51°54' E 004°27'0 0.0
2017-Nov-15 22:59N 51°54' E 004°27'0 0.0
2017-Nov-15 22:29N 51°54' E 004°27'0 0.0
2017-Nov-15 22:00N 51°54' E 004°27'0 0.0
2017-Nov-15 21:30N 51°54' E 004°27'0 0.0
2017-Nov-15 20:59N 51°54' E 004°27'0 0.0
2017-Nov-15 20:30N 51°54' E 004°27'0 0.0
2017-Nov-15 20:00N 51°54' E 004°27'0 0.0
2017-Nov-15 19:30N 51°54' E 004°27'0 0.0
2017-Nov-15 19:00N 51°54' E 004°27'0 0.0
2017-Nov-15 18:30N 51°54' E 004°27'0 0.0
2017-Nov-15 17:59N 51°54' E 004°27'0 0.0
2017-Nov-15 17:30N 51°54' E 004°27'0 0.0
2017-Nov-15 17:00N 51°54' E 004°27'0 0.0
2017-Nov-15 16:29N 51°54' E 004°27'0 0.0
2017-Nov-15 15:57N 51°54' E 004°27'0 0.0
2017-Nov-15 15:30N 51°54' E 004°27'0 0.0
2017-Nov-15 15:00N 51°54' E 004°27'0 0.0
2017-Nov-15 14:30N 51°54' E 004°27'0 0.0
2017-Nov-15 13:59N 51°54' E 004°27'0 0.0
2017-Nov-15 13:29N 51°54' E 004°27'0 0.0
2017-Nov-15 12:59N 51°54' E 004°27'0 0.0
2017-Nov-15 12:29N 51°54' E 004°27'0 0.0
2017-Nov-15 11:59N 51°54' E 004°27'0 0.0
2017-Nov-15 11:29N 51°54' E 004°27'0 0.0
2017-Nov-15 10:58N 51°54' E 004°27'0 0.0
2017-Nov-15 10:29N 51°54' E 004°27'0 0.0
2017-Nov-15 09:59N 51°54' E 004°27'0 0.0
2017-Nov-15 09:28N 51°54' E 004°27'0 0.0
2017-Nov-15 08:58N 51°54' E 004°27'0 0.0
2017-Nov-15 08:29N 51°54' E 004°27'0 0.0
2017-Nov-15 07:56N 51°54' E 004°27'0 0.0
2017-Nov-15 07:29N 51°54' E 004°27'0 0.0
2017-Nov-15 06:58N 51°54' E 004°27'0 0.0
2017-Nov-15 06:29N 51°54' E 004°27'0 0.0
2017-Nov-15 05:59N 51°54' E 004°27'0 0.0
2017-Nov-15 05:29N 51°54' E 004°27'0 0.0
2017-Nov-15 04:59N 51°54' E 004°27'0 0.0
2017-Nov-15 04:28N 51°54' E 004°27'0 0.0
2017-Nov-15 03:59N 51°54' E 004°27'0 0.0
2017-Nov-15 03:29N 51°54' E 004°27'0 0.0
2017-Nov-15 02:59N 51°54' E 004°27'0 0.0
2017-Nov-15 02:26N 51°54' E 004°27'0 0.0
2017-Nov-15 01:59N 51°54' E 004°27'0 0.0
2017-Nov-15 01:29N 51°54' E 004°27'0 0.0
2017-Nov-15 00:58N 51°54' E 004°27'0 0.0
2017-Nov-15 00:29N 51°54' E 004°27'0 0.0
2017-Nov-14 23:59N 51°54' E 004°27'0 0.0
2017-Nov-14 23:29N 51°54' E 004°27'0 0.0
2017-Nov-14 22:59N 51°54' E 004°27'0 0.0
2017-Nov-14 22:29N 51°54' E 004°27'0 0.0
2017-Nov-14 21:55N 51°54' E 004°27'0 0.0
2017-Nov-14 21:29N 51°54' E 004°27'0 0.0
2017-Nov-14 20:59N 51°54' E 004°27'0 0.0
2017-Nov-14 20:29N 51°54' E 004°27'0 0.0
2017-Nov-14 19:58N 51°54' E 004°27'0 0.0
2017-Nov-14 19:28N 51°54' E 004°27'0 0.0
2017-Nov-14 19:00N 51°54' E 004°27'0 0.0
2017-Nov-14 18:28N 51°54' E 004°27'0 0.0
2017-Nov-14 17:57N 51°54' E 004°27'0 0.0
2017-Nov-14 17:28N 51°54' E 004°27'0 0.0
2017-Nov-14 16:58N 51°54' E 004°27'0 0.0
2017-Nov-14 16:28N 51°54' E 004°27'0 0.0
2017-Nov-14 15:58N 51°54' E 004°27'0 0.0
2017-Nov-14 15:28N 51°54' E 004°27'0 0.0
2017-Nov-14 14:58N 51°54' E 004°27'0 0.0
2017-Nov-14 14:25N 51°54' E 004°27'0 0.0
2017-Nov-14 13:58N 51°54' E 004°27'0 0.0
2017-Nov-14 13:28N 51°54' E 004°27'0 0.0
2017-Nov-14 12:58N 51°54' E 004°27'0 0.0
2017-Nov-14 12:25N 51°54' E 004°27'0 0.0
2017-Nov-14 11:58N 51°54' E 004°27'0 0.0
2017-Nov-14 11:30N 51°54' E 004°27'0 0.0
2017-Nov-14 10:58N 51°54' E 004°27'0 0.0
2017-Nov-14 10:30N 51°54' E 004°27'0 0.0
2017-Nov-14 09:57N 51°54' E 004°27'0 0.0
2017-Nov-14 09:30N 51°54' E 004°27'0 0.0
2017-Nov-14 08:57N 51°54' E 004°27'0 0.0
2017-Nov-14 08:27N 51°54' E 004°27'0 0.0
2017-Nov-14 07:58N 51°54' E 004°27'0 0.0
2017-Nov-14 07:27N 51°54' E 004°27'0 0.0
2017-Nov-14 06:57N 51°54' E 004°27'0 0.0
2017-Nov-14 06:28N 51°54' E 004°27'0 0.0
2017-Nov-14 05:57N 51°54' E 004°27'0 0.0
2017-Nov-14 05:27N 51°54' E 004°27'0 0.0
2017-Nov-14 05:00N 51°54' E 004°27'0 0.0
2017-Nov-14 04:27N 51°54' E 004°27'0 0.0
2017-Nov-14 03:58N 51°54' E 004°27'0 0.0
2017-Nov-14 03:25N 51°54' E 004°27'0 0.0
2017-Nov-14 03:00N 51°54' E 004°27'0 0.0
2017-Nov-14 02:30N 51°54' E 004°27'0 0.0
2017-Nov-14 01:57N 51°54' E 004°27'0 0.0
2017-Nov-14 01:27N 51°54' E 004°27'0 0.0
2017-Nov-14 01:00N 51°54' E 004°27'0 0.0
2017-Nov-14 00:30N 51°54' E 004°27'0 0.0
2017-Nov-13 23:59N 51°54' E 004°27'0 0.0
2017-Nov-13 23:30N 51°54' E 004°27'0 0.0
2017-Nov-13 23:00N 51°54' E 004°27'0 0.0
2017-Nov-13 22:30N 51°54' E 004°27'0 0.0
2017-Nov-13 21:59N 51°54' E 004°27'0 0.0
2017-Nov-13 01:59N 51°54' E 004°27'0 0.0
2017-Nov-13 01:29N 51°54' E 004°27'0 0.0
2017-Nov-13 00:59N 51°54' E 004°27'0 0.0
2017-Nov-13 00:29N 51°54' E 004°27'0 0.0
2017-Nov-12 23:59N 51°54' E 004°27'0 0.0
2017-Nov-12 23:29N 51°54' E 004°27'0 0.0
2017-Nov-12 22:58N 51°54' E 004°27'0 0.0
2017-Nov-12 22:29N 51°54' E 004°27'0 0.0
2017-Nov-12 21:58N 51°54' E 004°27'0 0.0
2017-Nov-12 21:29N 51°54' E 004°27'0 0.0
2017-Nov-12 20:58N 51°54' E 004°27'0 0.0
2017-Nov-12 20:28N 51°54' E 004°27'0 0.0
2017-Nov-12 19:59N 51°54' E 004°27'0 0.0
2017-Nov-12 19:29N 51°54' E 004°27'0 0.0
2017-Nov-12 18:55N 51°54' E 004°27'0 0.0
2017-Nov-12 18:28N 51°54' E 004°27'0 0.0
2017-Nov-12 17:58N 51°54' E 004°27'0 0.0
2017-Nov-12 17:26N 51°54' E 004°27'0 0.0
2017-Nov-12 16:59N 51°54' E 004°27'0 0.0
2017-Nov-12 16:29N 51°54' E 004°27'0 0.0
2017-Nov-12 15:58N 51°54' E 004°27'0 0.0
2017-Nov-12 15:26N 51°54' E 004°27'0 0.0
2017-Nov-12 14:58N 51°54' E 004°27'0 0.0
2017-Nov-12 14:29N 51°54' E 004°27'0 0.0
2017-Nov-12 13:59N 51°54' E 004°27'0 0.0
2017-Nov-12 13:29N 51°54' E 004°27'0 0.0
2017-Nov-12 12:59N 51°54' E 004°27'0 0.0
2017-Nov-12 12:29N 51°54' E 004°27'0 0.0
2017-Nov-12 11:59N 51°54' E 004°27'0 0.0
2017-Nov-12 11:29N 51°54' E 004°27'0 0.0
2017-Nov-12 10:58N 51°54' E 004°27'0 0.0
2017-Nov-12 10:28N 51°54' E 004°27'0 0.0
2017-Nov-12 09:59N 51°54' E 004°27'0 0.0
2017-Nov-12 09:28N 51°54' E 004°27'0 0.0
2017-Nov-12 09:01N 51°54' E 004°27'0 0.0
2017-Nov-12 08:28N 51°54' E 004°27'0 0.0
2017-Nov-12 08:00N 51°54' E 004°27'0 0.0
2017-Nov-12 07:28N 51°54' E 004°27'0 0.0
2017-Nov-12 07:00N 51°54' E 004°27'0 0.0
2017-Nov-12 06:28N 51°54' E 004°27'0 0.0
2017-Nov-12 05:57N 51°54' E 004°27'0 0.0
2017-Nov-12 05:25N 51°54' E 004°27'0 0.0
2017-Nov-12 04:57N 51°54' E 004°27'0 0.0
2017-Nov-12 04:30N 51°54' E 004°27'0 0.0
2017-Nov-12 03:58N 51°54' E 004°27'0 0.0
2017-Nov-12 03:30N 51°54' E 004°27'0 0.0
2017-Nov-12 03:00N 51°54' E 004°27'0 0.0
2017-Nov-12 02:30N 51°54' E 004°27'0 0.0
2017-Nov-12 01:57N 51°54' E 004°27'0 0.0
2017-Nov-12 01:28N 51°54' E 004°27'0 0.0
2017-Nov-12 01:00N 51°54' E 004°27'0 0.0
2017-Nov-12 00:27N 51°54' E 004°27'0 0.0
2017-Nov-11 23:58N 51°54' E 004°27'0 0.0
2017-Nov-11 23:30N 51°54' E 004°27'0 0.0
2017-Nov-11 22:58N 51°54' E 004°27'0 0.0
2017-Nov-11 22:30N 51°54' E 004°27'0 0.0
2017-Nov-11 22:00N 51°54' E 004°27'0 0.0
2017-Nov-11 21:30N 51°54' E 004°27'0 0.0
2017-Nov-11 20:57N 51°54' E 004°27'0 0.0
2017-Nov-11 20:28N 51°54' E 004°27'0 0.0
2017-Nov-11 19:58N 51°54' E 004°27'0 0.0
2017-Nov-11 19:28N 51°54' E 004°27'0 0.0
2017-Nov-11 18:58N 51°54' E 004°27'0 0.0
2017-Nov-11 18:28N 51°54' E 004°27'0 0.0
2017-Nov-11 17:57N 51°54' E 004°27'0 0.0
2017-Nov-11 17:30N 51°54' E 004°27'0 0.0
2017-Nov-11 16:57N 51°54' E 004°27'0 0.0
2017-Nov-11 16:30N 51°54' E 004°27'0 0.0
2017-Nov-11 15:58N 51°54' E 004°27'0 0.0
2017-Nov-11 15:28N 51°54' E 004°27'0 0.1
2017-Nov-11 14:58N 51°54' E 004°27'1 3.1
2017-Nov-11 14:31N 51°54' E 004°25'1 2.6
2017-Nov-11 14:00N 51°54' E 004°23'0 0.0
2017-Nov-11 13:29N 51°54' E 004°23'0 0.0
2017-Nov-11 13:00N 51°54' E 004°23'0 0.0
2017-Nov-11 12:30N 51°54' E 004°23'0 0.0
2017-Nov-11 12:00N 51°54' E 004°23'0 0.0
2017-Nov-11 11:30N 51°54' E 004°23'0 0.0
2017-Nov-11 10:59N 51°54' E 004°23'0 0.0
2017-Nov-11 10:30N 51°54' E 004°23'0 0.0
2017-Nov-11 10:00N 51°54' E 004°23'0 0.0
2017-Nov-11 09:29N 51°54' E 004°23'0 0.0
2017-Nov-11 09:00N 51°54' E 004°23'0 0.0
2017-Nov-11 08:29N 51°54' E 004°23'0 0.0
2017-Nov-11 08:00N 51°54' E 004°23'0 0.0
2017-Nov-11 07:29N 51°54' E 004°23'0 0.0
2017-Nov-11 07:00N 51°54' E 004°23'0 0.0
2017-Nov-11 06:30N 51°54' E 004°23'0 0.0
2017-Nov-11 05:59N 51°54' E 004°23'0 0.0
2017-Nov-11 05:30N 51°54' E 004°23'0 0.0
2017-Nov-11 04:59N 51°54' E 004°23'0 0.0
2017-Nov-11 04:29N 51°54' E 004°23'0 0.0
2017-Nov-11 03:59N 51°54' E 004°23'0 0.0
2017-Nov-11 03:29N 51°54' E 004°23'0 0.0
2017-Nov-11 02:56N 51°54' E 004°23'0 0.0
2017-Nov-11 02:29N 51°54' E 004°23'0 0.0
2017-Nov-11 01:58N 51°54' E 004°23'0 0.0
2017-Nov-11 01:28N 51°54' E 004°23'0 0.0
2017-Nov-11 00:58N 51°54' E 004°23'0 0.0
2017-Nov-11 00:28N 51°54' E 004°23'0 0.0
2017-Nov-10 23:58N 51°54' E 004°23'0 0.0
2017-Nov-10 23:28N 51°54' E 004°23'0 0.0
2017-Nov-10 22:55N 51°54' E 004°23'0 0.0
2017-Nov-10 22:29N 51°54' E 004°23'0 0.0
2017-Nov-10 21:59N 51°54' E 004°23'0 0.0
2017-Nov-10 21:28N 51°54' E 004°23'0 0.0
2017-Nov-10 20:59N 51°54' E 004°23'0 0.0
2017-Nov-10 20:29N 51°54' E 004°23'0 0.0
2017-Nov-10 19:59N 51°54' E 004°23'0 0.0
2017-Nov-10 18:58N 51°54' E 004°23'0 0.0
2017-Nov-10 18:29N 51°54' E 004°23'0 0.0
2017-Nov-10 17:58N 51°54' E 004°23'0 0.0
2017-Nov-10 17:29N 51°54' E 004°23'0 0.0
2017-Nov-10 16:58N 51°54' E 004°23'0 0.0
2017-Nov-10 16:28N 51°54' E 004°23'0 0.0
2017-Nov-10 15:59N 51°54' E 004°23'0 0.0
2017-Nov-10 15:29N 51°54' E 004°23'0 0.0
2017-Nov-10 14:58N 51°54' E 004°23'0 0.0
2017-Nov-10 14:25N 51°54' E 004°23'0 0.0
2017-Nov-10 13:59N 51°54' E 004°23'0 0.0
2017-Nov-10 13:28N 51°54' E 004°23'0 0.0
2017-Nov-10 12:58N 51°54' E 004°23'0 0.0
2017-Nov-10 12:29N 51°54' E 004°23'0 0.0
2017-Nov-10 11:59N 51°54' E 004°23'0 0.0
2017-Nov-10 11:28N 51°54' E 004°23'0 0.0
2017-Nov-10 10:58N 51°54' E 004°23'0 0.0
2017-Nov-10 10:29N 51°54' E 004°23'0 0.0
2017-Nov-10 09:59N 51°54' E 004°23'0 0.0
2017-Nov-10 09:29N 51°54' E 004°23'0 0.0
2017-Nov-10 08:59N 51°54' E 004°23'0 0.0
2017-Nov-10 08:26N 51°54' E 004°23'0 0.0
2017-Nov-10 07:56N 51°54' E 004°23'0 0.0
2017-Nov-10 07:28N 51°54' E 004°23'0 0.0
2017-Nov-10 06:59N 51°54' E 004°23'0 0.0
2017-Nov-10 06:28N 51°54' E 004°23'0 0.0
2017-Nov-10 06:01N 51°54' E 004°23'0 0.0
2017-Nov-10 05:31N 51°54' E 004°23'0 0.0
2017-Nov-10 05:01N 51°54' E 004°23'0 0.0
2017-Nov-10 04:30N 51°54' E 004°23'0 0.0
2017-Nov-10 04:00N 51°54' E 004°23'0 0.0
2017-Nov-10 03:30N 51°54' E 004°23'0 0.0
2017-Nov-10 03:00N 51°54' E 004°23'0 0.0
2017-Nov-10 02:30N 51°54' E 004°23'0 0.0
2017-Nov-10 02:00N 51°54' E 004°23'0 0.0
2017-Nov-10 01:30N 51°54' E 004°23'0 0.0
2017-Nov-10 01:00N 51°54' E 004°23'  

Dump ship's entire track history